Time;durP1;ratioP1;P1;durP2;ratioP2;P2;SDS_P1;SDS_P2;PMS_P1;PMS_P2;Temp;Humidity;BMP_temperature;BMP_pressure;BME280_temperature;BME280_humidity;BME280_pressure;Samples;Min_cycle;Max_cycle;Signal;HPM_P1;HPM_P2
2023/03/13 00:00:24;;;;;;;2.20;0.60;;;6.90;99.90;;;;;;5072169;28;20317;-68
2023/03/13 00:02:52;;;;;;;1.60;1.10;;;6.90;99.90;;;;;;5071742;28;20973;-68
2023/03/13 00:05:19;;;;;;;0.97;0.97;;;6.80;99.90;;;;;;5072252;28;20205;-68
2023/03/13 00:07:45;;;;;;;0.70;0.70;;;6.80;99.90;;;;;;5072070;28;20626;-68
2023/03/13 00:10:12;;;;;;;0.90;0.90;;;6.80;99.90;;;;;;5071900;28;21097;-67
2023/03/13 00:12:39;;;;;;;1.33;0.70;;;6.80;99.90;;;;;;5071710;28;20669;-68
2023/03/13 00:15:07;;;;;;;0.90;0.90;;;6.70;99.90;;;;;;5072057;28;20956;-68
2023/03/13 00:17:34;;;;;;;3.38;1.30;;;;;;;;;;5071254;28;20649;-68
2023/03/13 00:20:02;;;;;;;2.55;1.35;;;6.60;99.90;;;;;;5071785;28;20199;-67
2023/03/13 00:22:29;;;;;;;0.93;0.93;;;6.80;99.90;;;;;;5071658;28;20191;-68
2023/03/13 00:24:55;;;;;;;1.50;1.38;;;6.90;99.90;;;;;;5072005;28;20576;-67
2023/03/13 00:27:22;;;;;;;0.60;0.60;;;7.50;99.90;;;;;;5071483;28;20719;-68
2023/03/13 00:29:49;;;;;;;1.15;0.88;;;6.90;99.90;;;;;;5071893;28;21164;-68
2023/03/13 00:32:16;;;;;;;0.95;0.90;;;6.90;99.90;;;;;;5071144;28;20235;-68
2023/03/13 00:34:43;;;;;;;0.60;0.60;;;7.00;99.90;;;;;;5071845;28;20205;-68
2023/03/13 00:37:11;;;;;;;1.17;1.08;;;7.00;99.90;;;;;;5071202;28;20653;-68
2023/03/13 00:39:38;;;;;;;0.70;0.70;;;7.10;99.90;;;;;;5071380;28;20195;-68
2023/03/13 00:42:05;;;;;;;1.02;0.70;;;7.10;99.90;;;;;;5071200;28;20223;-68
2023/03/13 00:44:32;;;;;;;2.10;1.88;;;7.10;99.90;;;;;;5071233;28;20274;-69
2023/03/13 00:46:59;;;;;;;1.58;0.60;;;7.10;99.90;;;;;;5071333;28;20227;-68
2023/03/13 00:49:26;;;;;;;1.35;1.30;;;7.20;99.90;;;;;;5070871;28;20203;-68
2023/03/13 00:51:52;;;;;;;1.20;1.10;;;6.90;99.90;;;;;;5071108;28;20253;-69
2023/03/13 00:54:20;;;;;;;1.02;0.88;;;7.10;99.90;;;;;;5071319;28;21225;-68
2023/03/13 00:56:47;;;;;;;5.45;1.02;;;7.30;99.90;;;;;;5071011;28;20610;-68
2023/03/13 00:59:14;;;;;;;1.63;1.50;;;6.90;99.90;;;;;;5069295;28;20673;-68
2023/03/13 01:01:41;;;;;;;2.40;1.23;;;7.20;99.90;;;;;;5070760;28;20685;-68
2023/03/13 01:04:09;;;;;;;1.13;1.13;;;7.10;99.90;;;;;;5071633;28;21173;-68
2023/03/13 01:06:41;;;;;;;1.23;0.65;;;7.20;99.90;;;;;;5070840;28;20216;-68
2023/03/13 01:09:09;;;;;;;0.55;0.45;;;7.20;99.90;;;;;;5071012;28;20294;-68
2023/03/13 01:11:40;;;;;;;1.03;0.87;;;7.30;99.90;;;;;;5070277;28;20234;-68
2023/03/13 01:14:10;;;;;;;1.17;0.53;;;7.10;99.90;;;;;;5070577;28;20635;-68
2023/03/13 01:16:38;;;;;;;0.90;0.90;;;7.10;99.90;;;;;;5070754;28;20659;-68
2023/03/13 01:19:06;;;;;;;0.53;0.43;;;8.60;99.90;;;;;;5070278;28;20622;-68
2023/03/13 01:21:33;;;;;;;1.20;1.10;;;7.30;99.90;;;;;;5070753;28;20659;-68
2023/03/13 01:24:00;;;;;;;0.90;0.90;;;7.40;99.90;;;;;;5070334;28;20648;-68
2023/03/13 01:26:28;;;;;;;0.70;0.70;;;7.20;99.90;;;;;;5069973;28;20663;-68
2023/03/13 01:28:56;;;;;;;1.90;0.93;;;7.10;99.90;;;;;;5070772;28;20617;-67
2023/03/13 01:31:26;;;;;;;0.60;0.60;;;7.50;99.90;;;;;;5070347;28;20649;-68
2023/03/13 01:33:56;;;;;;;1.50;1.40;;;7.20;99.90;;;;;;5070979;28;20632;-68
2023/03/13 01:36:23;;;;;;;1.02;0.90;;;7.10;99.90;;;;;;5070280;28;20653;-68
2023/03/13 01:38:51;;;;;;;0.70;0.60;;;7.20;99.90;;;;;;5069757;28;20195;-67
2023/03/13 01:41:19;;;;;;;0.80;0.80;;;7.50;99.90;;;;;;5070477;28;20649;-68
2023/03/13 01:43:46;;;;;;;1.07;0.40;;;7.40;99.90;;;;;;5070671;28;20716;-68
2023/03/13 01:46:16;;;;;;;0.80;0.70;;;7.40;99.70;;;;;;5070127;28;20656;-68
2023/03/13 01:48:52;;;;;;;0.60;0.60;;;7.40;99.60;;;;;;5070341;28;20613;-68
2023/03/13 01:51:23;;;;;;;0.50;0.50;;;7.60;99.90;;;;;;5069844;28;20649;-67
2023/03/13 01:53:54;;;;;;;6.93;1.53;;;7.70;99.90;;;;;;5070251;28;21167;-68
2023/03/13 01:56:28;;;;;;;0.97;0.87;;;7.50;99.40;;;;;;5070327;28;20648;-68
2023/03/13 01:58:56;;;;;;;1.13;1.03;;;7.80;99.90;;;;;;5072907;28;21162;-68
2023/03/13 02:01:25;;;;;;;1.37;1.27;;;7.50;99.30;;;;;;5073923;28;20655;-67
2023/03/13 02:03:53;;;;;;;3.13;0.70;;;7.30;99.90;;;;;;5074139;28;20628;-68
2023/03/13 02:06:20;;;;;;;4.03;0.67;;;;;;;;;;5073282;28;20649;-68
2023/03/13 02:08:53;;;;;;;0.50;0.50;;;7.40;99.90;;;;;;5073653;28;20625;-68
2023/03/13 02:11:29;;;;;;;0.70;0.70;;;7.60;99.90;;;;;;5073348;28;21291;-67
2023/03/13 02:13:57;;;;;;;2.90;1.43;;;7.50;99.90;;;;;;5074555;28;20682;-67
2023/03/13 02:16:28;;;;;;;2.87;0.90;;;7.00;99.80;;;;;;5073419;28;20668;-68
2023/03/13 02:18:56;;;;;;;0.73;0.70;;;7.10;99.90;;;;;;5074069;28;20618;-68
2023/03/13 02:21:35;;;;;;;1.03;0.70;;;7.20;99.90;;;;;;5074226;28;20629;-68
2023/03/13 02:24:13;;;;;;;0.47;0.40;;;7.40;99.90;;;;;;5072953;28;21095;-68
2023/03/13 02:26:42;;;;;;;0.37;0.37;;;7.50;99.70;;;;;;5073495;28;20657;-68
2023/03/13 02:29:17;;;;;;;0.67;0.67;;;7.40;99.90;;;;;;5073852;28;21223;-67
2023/03/13 02:31:45;;;;;;;0.50;0.47;;;7.50;99.90;;;;;;5073467;28;20993;-68
2023/03/13 02:34:15;;;;;;;0.50;0.50;;;7.70;99.90;;;;;;5074118;28;20605;-68
2023/03/13 02:36:44;;;;;;;0.50;0.40;;;7.70;99.90;;;;;;5073570;28;21014;-68
2023/03/13 02:39:14;;;;;;;0.60;0.30;;;8.00;99.90;;;;;;5073404;28;20724;-67
2023/03/13 02:41:46;;;;;;;0.30;0.20;;;8.00;99.90;;;;;;5073245;28;20657;-68
2023/03/13 02:44:14;;;;;;;0.30;0.20;;;;;;;;;;5072588;28;20624;-67
2023/03/13 02:46:46;;;;;;;0.30;0.20;;;8.00;99.90;;;;;;5073169;28;20744;-68
2023/03/13 02:49:22;;;;;;;0.30;0.20;;;7.60;99.90;;;;;;5073517;28;20628;-67
2023/03/13 02:51:50;;;;;;;2.60;1.50;;;7.90;99.90;;;;;;5072616;28;21005;-68
2023/03/13 02:54:24;;;;;;;0.30;0.20;;;7.90;99.90;;;;;;5073741;28;20644;-68
2023/03/13 02:56:56;;;;;;;1.23;0.60;;;8.00;99.30;;;;;;5073139;28;20637;-68
2023/03/13 02:59:24;;;;;;;0.60;0.47;;;7.90;99.90;;;;;;5073197;28;20613;-67
2023/03/13 03:01:51;;;;;;;0.43;0.43;;;8.70;99.90;;;;;;5072951;28;21402;-68
2023/03/13 03:04:20;;;;;;;0.83;0.70;;;8.40;99.90;;;;;;5073017;28;20609;-68
2023/03/13 03:06:49;;;;;;;2.20;0.93;;;8.00;99.90;;;;;;5073155;28;20707;-68
2023/03/13 03:09:19;;;;;;;0.40;0.30;;;8.10;99.60;;;;;;5073063;28;20624;-68
2023/03/13 03:11:47;;;;;;;7.20;0.53;;;8.30;99.90;;;;;;5073147;28;20694;-68
2023/03/13 03:14:15;;;;;;;0.37;0.27;;;8.30;99.90;;;;;;5073096;28;20625;-68
2023/03/13 03:16:42;;;;;;;0.30;0.20;;;8.40;99.90;;;;;;5071837;28;20991;-67
2023/03/13 03:19:10;;;;;;;0.37;0.27;;;;;;;;;;5072987;28;20598;-68
2023/03/13 03:21:37;;;;;;;0.30;0.20;;;8.10;99.90;;;;;;5072704;28;20740;-68
2023/03/13 03:24:05;;;;;;;0.30;0.30;;;8.70;99.90;;;;;;5073284;28;20605;-68
2023/03/13 03:26:33;;;;;;;1.23;0.60;;;8.20;99.90;;;;;;5072828;28;21238;-68
2023/03/13 03:29:01;;;;;;;0.43;0.40;;;8.20;99.90;;;;;;5072805;28;20602;-68
2023/03/13 03:31:30;;;;;;;0.40;0.30;;;8.40;99.90;;;;;;5072429;28;21567;-68
2023/03/13 03:33:58;;;;;;;0.50;0.30;;;;;;;;;;5073229;28;21109;-68
2023/03/13 03:36:26;;;;;;;0.40;0.27;;;8.40;99.90;;;;;;5072551;28;20665;-68
2023/03/13 03:38:54;;;;;;;0.47;0.47;;;8.40;99.90;;;;;;5072732;28;20613;-68
2023/03/13 03:41:21;;;;;;;0.30;0.20;;;8.30;99.90;;;;;;5072522;28;20698;-68
2023/03/13 03:43:49;;;;;;;0.43;0.37;;;;;;;;;;5071694;28;21261;-68
2023/03/13 03:46:17;;;;;;;0.50;0.50;;;;;;;;;;5072133;28;20653;-67
2023/03/13 03:48:50;;;;;;;0.30;0.20;;;8.50;99.90;;;;;;5072607;28;20735;-68
2023/03/13 03:51:17;;;;;;;0.30;0.27;;;8.70;99.90;;;;;;5072697;28;20645;-68
2023/03/13 03:53:45;;;;;;;0.30;0.17;;;8.30;99.90;;;;;;5072785;28;21020;-68
2023/03/13 03:56:13;;;;;;;0.30;0.23;;;;;;;;;;5070254;28;20653;-68
2023/03/13 03:58:40;;;;;;;0.30;0.20;;;8.80;99.90;;;;;;5072278;28;20614;-68
2023/03/13 04:01:08;;;;;;;0.70;0.30;;;9.00;99.90;;;;;;5072346;28;20654;-68
2023/03/13 04:03:36;;;;;;;0.50;0.43;;;8.80;99.90;;;;;;5072550;28;20629;-68
2023/03/13 04:06:05;;;;;;;0.30;0.20;;;9.10;99.90;;;;;;5071929;28;21233;-68
2023/03/13 04:08:33;;;;;;;1.10;1.00;;;9.20;99.90;;;;;;5071910;28;20621;-68
2023/03/13 04:11:01;;;;;;;0.50;0.30;;;9.20;99.90;;;;;;5071855;28;20678;-68
2023/03/13 04:13:29;;;;;;;0.40;0.27;;;9.70;99.90;;;;;;5071978;28;21118;-68
2023/03/13 04:15:56;;;;;;;0.40;0.40;;;9.30;99.90;;;;;;5071649;28;20669;-68
2023/03/13 04:18:22;;;;;;;1.37;0.80;;;9.70;99.90;;;;;;5071667;28;20610;-68
2023/03/13 04:20:49;;;;;;;0.30;0.23;;;9.50;99.90;;;;;;5071477;28;20695;-68
2023/03/13 04:23:17;;;;;;;0.30;0.30;;;9.60;99.90;;;;;;5071781;28;20663;-68
2023/03/13 04:25:44;;;;;;;0.30;0.10;;;9.70;99.90;;;;;;5071473;28;20718;-68
2023/03/13 04:28:13;;;;;;;0.40;0.40;;;9.80;99.90;;;;;;5071728;28;21427;-68
2023/03/13 04:30:41;;;;;;;0.73;0.53;;;9.70;99.90;;;;;;5071689;28;20765;-68
2023/03/13 04:33:08;;;;;;;0.40;0.40;;;9.90;99.90;;;;;;5071600;28;20653;-68
2023/03/13 04:35:34;;;;;;;0.50;0.27;;;9.90;99.90;;;;;;5071115;28;21220;-68
2023/03/13 04:38:01;;;;;;;0.47;0.47;;;;;;;;;;5071219;28;21161;-68
2023/03/13 04:40:30;;;;;;;0.30;0.27;;;10.30;99.90;;;;;;5071094;28;20745;-68
2023/03/13 04:42:56;;;;;;;10.93;0.67;;;10.00;99.90;;;;;;5071391;28;20613;-67
2023/03/13 04:45:23;;;;;;;0.30;0.30;;;;;;;;;;5070934;28;20776;-68
2023/03/13 04:47:50;;;;;;;0.30;0.30;;;9.90;99.90;;;;;;5051619;28;20622;-68
2023/03/13 04:50:17;;;;;;;0.30;0.30;;;10.20;99.90;;;;;;5050720;28;20964;-69
2023/03/13 04:52:44;;;;;;;0.40;0.20;;;;;;;;;;5063492;28;20759;-68
2023/03/13 04:55:11;;;;;;;0.30;0.20;;;;;;;;;;5071336;28;20618;-70
2023/03/13 04:57:39;;;;;;;0.40;0.30;;;10.20;99.90;;;;;;5070753;28;20610;-68
2023/03/13 05:00:09;;;;;;;0.30;0.30;;;9.70;99.90;;;;;;5070857;28;20657;-68
2023/03/13 05:02:35;;;;;;;0.30;0.20;;;10.40;99.90;;;;;;5071167;28;21018;-68
2023/03/13 05:05:02;;;;;;;0.87;0.87;;;;;;;;;;5070813;28;20625;-68
2023/03/13 05:07:29;;;;;;;0.30;0.20;;;10.60;99.90;;;;;;5070652;28;20617;-68
2023/03/13 05:09:56;;;;;;;0.57;0.47;;;;;;;;;;5070714;28;20628;-68
2023/03/13 05:12:23;;;;;;;0.30;0.20;;;10.40;99.90;;;;;;5070604;28;20689;-68
2023/03/13 05:14:52;;;;;;;0.33;0.33;;;10.90;99.90;;;;;;5070899;28;20668;-68
2023/03/13 05:17:19;;;;;;;0.40;0.30;;;10.10;99.90;;;;;;5070547;28;20650;-68
2023/03/13 05:19:46;;;;;;;0.30;0.20;;;10.20;99.90;;;;;;5070139;28;20615;-68
2023/03/13 05:22:13;;;;;;;0.30;0.20;;;;;;;;;;5070633;28;20645;-69
2023/03/13 05:24:39;;;;;;;0.40;0.30;;;10.40;99.90;;;;;;5070865;28;20622;-68
2023/03/13 05:27:06;;;;;;;3.23;0.50;;;10.50;99.90;;;;;;5070563;28;20664;-68
2023/03/13 05:29:33;;;;;;;0.40;0.30;;;;;;;;;;5070464;28;20628;-68
2023/03/13 05:32:01;;;;;;;0.30;0.20;;;9.40;99.90;;;;;;5069658;28;20653;-68
2023/03/13 05:34:28;;;;;;;0.63;0.40;;;;;;;;;;5070534;28;21011;-68
2023/03/13 05:36:55;;;;;;;0.40;0.37;;;9.50;99.90;;;;;;5070725;28;20653;-68
2023/03/13 05:39:22;;;;;;;0.30;0.30;;;11.10;99.90;;;;;;5070823;28;20628;-68
2023/03/13 05:41:49;;;;;;;0.30;0.20;;;10.80;99.90;;;;;;5070065;28;20645;-68
2023/03/13 05:44:15;;;;;;;0.30;0.20;;;10.20;99.90;;;;;;5070750;28;20632;-68
2023/03/13 05:46:42;;;;;;;0.60;0.60;;;10.20;99.90;;;;;;5069719;28;20664;-69
2023/03/13 05:49:10;;;;;;;0.60;0.40;;;10.40;99.90;;;;;;5070488;28;20660;-68
2023/03/13 05:51:37;;;;;;;0.30;0.23;;;;;;;;;;5070028;28;20650;-68
2023/03/13 05:54:05;;;;;;;0.30;0.20;;;;;;;;;;5070652;28;20702;-69
2023/03/13 05:56:32;;;;;;;0.30;0.20;;;10.50;99.90;;;;;;5070324;28;21264;-69
2023/03/13 05:58:59;;;;;;;0.67;0.37;;;;;;;;;;5069938;28;20632;-68
2023/03/13 06:01:26;;;;;;;0.50;0.30;;;;;;;;;;5063064;28;20661;-68
2023/03/13 06:03:52;;;;;;;0.53;0.40;;;10.70;99.90;;;;;;5070067;28;20622;-68
2023/03/13 06:06:21;;;;;;;0.30;0.30;;;10.60;99.90;;;;;;5065793;28;21371;-69
2023/03/13 06:08:47;;;;;;;0.40;0.40;;;10.60;99.90;;;;;;5067940;28;20713;-69
2023/03/13 06:11:14;;;;;;;0.43;0.27;;;10.10;99.90;;;;;;5061202;28;20649;-68
2023/03/13 06:13:41;;;;;;;0.30;0.20;;;;;;;;;;5068105;28;20665;-68
2023/03/13 06:16:09;;;;;;;0.40;0.30;;;;;;;;;;5061802;28;20662;-68
2023/03/13 06:18:36;;;;;;;0.30;0.20;;;;;;;;;;5068867;28;20628;-69
2023/03/13 06:21:03;;;;;;;1.27;0.43;;;10.80;99.90;;;;;;5068321;28;20653;-68
2023/03/13 06:23:32;;;;;;;0.30;0.20;;;10.80;99.90;;;;;;5069832;28;20629;-68
2023/03/13 06:26:00;;;;;;;0.30;0.20;;;10.90;99.90;;;;;;5068022;28;20649;-67
2023/03/13 06:28:27;;;;;;;0.40;0.30;;;11.00;99.90;;;;;;5067239;28;20637;-69
2023/03/13 06:30:54;;;;;;;0.30;0.20;;;10.90;99.90;;;;;;5061678;28;20654;-68
2023/03/13 06:33:20;;;;;;;0.40;0.20;;;11.00;99.90;;;;;;5069414;28;20684;-68
2023/03/13 06:35:47;;;;;;;0.30;0.20;;;11.00;99.90;;;;;;5064923;28;20665;-69
2023/03/13 06:38:14;;;;;;;0.30;0.30;;;11.00;99.90;;;;;;5058639;28;20764;-70
2023/03/13 06:40:42;;;;;;;0.50;0.37;;;11.50;99.90;;;;;;5067599;28;20646;-70
2023/03/13 06:43:09;;;;;;;0.30;0.20;;;;;;;;;;5066295;28;20625;-69
2023/03/13 06:45:36;;;;;;;0.30;0.20;;;11.10;99.90;;;;;;5071220;28;20701;-68
2023/03/13 06:48:05;;;;;;;0.40;0.40;;;11.20;99.90;;;;;;5070501;28;20637;-68
2023/03/13 06:50:31;;;;;;;0.30;0.20;;;11.10;99.90;;;;;;5067560;28;20685;-68
2023/03/13 06:52:59;;;;;;;0.40;0.30;;;11.20;99.90;;;;;;5070807;28;20613;-69
2023/03/13 06:55:25;;;;;;;0.30;0.30;;;11.20;99.90;;;;;;5069071;28;20633;-69
2023/03/13 06:57:54;;;;;;;0.30;0.20;;;11.20;99.90;;;;;;5069611;28;20621;-69
2023/03/13 07:00:21;;;;;;;0.40;0.30;;;11.10;99.90;;;;;;5066437;28;21073;-68
2023/03/13 07:02:48;;;;;;;0.63;0.63;;;11.30;99.90;;;;;;5070686;28;20640;-69
2023/03/13 07:05:15;;;;;;;0.30;0.20;;;11.40;99.90;;;;;;5071248;28;20621;-69
2023/03/13 07:07:43;;;;;;;0.30;0.30;;;11.30;99.90;;;;;;5070997;28;21022;-69
2023/03/13 07:10:11;;;;;;;0.30;0.20;;;11.30;99.90;;;;;;5068630;28;20609;-69
2023/03/13 07:12:38;;;;;;;0.30;0.30;;;11.30;99.90;;;;;;5069815;28;20640;-69
2023/03/13 07:15:07;;;;;;;0.30;0.30;;;11.30;99.90;;;;;;5071245;28;20668;-69
2023/03/13 07:17:34;;;;;;;0.30;0.20;;;11.30;99.90;;;;;;5070494;28;20632;-69
2023/03/13 07:20:01;;;;;;;0.80;0.70;;;11.40;99.90;;;;;;5069626;28;20657;-69
2023/03/13 07:22:28;;;;;;;1.27;0.73;;;11.20;99.90;;;;;;5070541;28;20710;-69
2023/03/13 07:24:54;;;;;;;0.50;0.20;;;11.50;99.90;;;;;;5068940;28;20625;-69
2023/03/13 07:27:21;;;;;;;0.30;0.20;;;11.40;99.90;;;;;;5062318;28;20669;-68
2023/03/13 07:29:48;;;;;;;1.17;1.17;;;11.70;99.90;;;;;;5069543;28;20637;-69
2023/03/13 07:32:17;;;;;;;0.90;0.60;;;11.80;99.90;;;;;;5071030;28;20655;-68
2023/03/13 07:34:43;;;;;;;0.70;0.50;;;11.50;99.90;;;;;;5071565;28;20676;-69
2023/03/13 07:37:11;;;;;;;0.60;0.20;;;11.70;99.90;;;;;;5070108;28;20796;-68
2023/03/13 07:39:37;;;;;;;0.57;0.27;;;11.50;99.90;;;;;;5069816;28;20616;-69
2023/03/13 07:42:04;;;;;;;0.30;0.20;;;11.60;99.90;;;;;;5069049;28;20669;-69
2023/03/13 07:44:31;;;;;;;8.43;1.17;;;11.60;99.90;;;;;;5070506;28;20987;-69
2023/03/13 07:47:00;;;;;;;0.40;0.40;;;11.60;99.90;;;;;;5065476;28;20740;-68
2023/03/13 07:49:28;;;;;;;0.40;0.30;;;11.70;99.90;;;;;;5063982;28;20621;-69
2023/03/13 07:51:56;;;;;;;0.47;0.40;;;11.50;99.90;;;;;;5062654;28;20655;-70
2023/03/13 07:54:23;;;;;;;0.40;0.27;;;11.70;99.90;;;;;;5059771;28;20723;-69
2023/03/13 07:56:50;;;;;;;0.30;0.30;;;11.80;99.90;;;;;;5056296;28;20653;-71
2023/03/13 07:59:17;;;;;;;0.60;0.30;;;11.70;99.90;;;;;;5064540;28;20626;-69
2023/03/13 08:01:44;;;;;;;0.70;0.40;;;11.70;99.90;;;;;;5067804;28;20652;-69
2023/03/13 08:04:12;;;;;;;0.40;0.40;;;11.70;99.90;;;;;;5069290;28;20640;-69
2023/03/13 08:06:41;;;;;;;0.40;0.30;;;11.80;99.90;;;;;;5065876;28;20654;-69
2023/03/13 08:09:08;;;;;;;0.50;0.30;;;11.90;99.90;;;;;;5068319;28;20612;-68
2023/03/13 08:11:35;;;;;;;0.40;0.40;;;11.90;99.90;;;;;;5063551;28;20661;-68
2023/03/13 08:14:02;;;;;;;0.50;0.20;;;12.00;99.90;;;;;;5068406;28;20774;-68
2023/03/13 08:16:32;;;;;;;0.63;0.40;;;12.10;99.90;;;;;;5068952;28;20689;-69
2023/03/13 08:19:02;;;;;;;0.43;0.30;;;11.90;99.90;;;;;;5067218;28;20637;-69
2023/03/13 08:21:30;;;;;;;0.60;0.50;;;12.10;99.90;;;;;;5070502;28;20684;-69
2023/03/13 08:24:02;;;;;;;0.50;0.37;;;12.10;99.90;;;;;;5070487;28;20626;-69
2023/03/13 08:26:30;;;;;;;1.37;0.73;;;12.30;99.90;;;;;;5069155;28;21208;-69
2023/03/13 08:28:58;;;;;;;1.50;0.27;;;12.30;99.90;;;;;;5067379;28;20622;-69
2023/03/13 08:31:27;;;;;;;0.40;0.30;;;12.40;99.90;;;;;;5068129;28;20772;-69
2023/03/13 08:33:53;;;;;;;0.40;0.30;;;12.70;99.90;;;;;;5069363;28;20687;-69
2023/03/13 08:36:23;;;;;;;0.60;0.40;;;12.60;99.90;;;;;;5069852;28;20653;-69
2023/03/13 08:38:51;;;;;;;0.40;0.30;;;12.60;99.90;;;;;;5068579;28;21002;-68
2023/03/13 08:41:21;;;;;;;0.50;0.43;;;12.70;99.90;;;;;;5069737;28;20697;-69
2023/03/13 08:43:49;;;;;;;0.60;0.43;;;12.80;99.90;;;;;;5068044;28;20624;-68
2023/03/13 08:46:16;;;;;;;0.30;0.20;;;12.70;99.90;;;;;;5067247;28;20677;-69
2023/03/13 08:48:43;;;;;;;0.80;0.73;;;12.70;99.90;;;;;;5066424;28;20625;-69
2023/03/13 08:51:15;;;;;;;0.50;0.37;;;12.80;99.90;;;;;;5060811;28;20649;-68
2023/03/13 08:53:43;;;;;;;0.30;0.30;;;12.90;99.90;;;;;;5069987;28;20624;-69
2023/03/13 08:56:11;;;;;;;0.40;0.30;;;12.90;99.90;;;;;;5068069;28;20657;-68
2023/03/13 08:58:39;;;;;;;0.40;0.30;;;12.80;99.90;;;;;;5066268;28;20621;-70
2023/03/13 09:01:08;;;;;;;0.63;0.63;;;12.90;99.90;;;;;;5067562;28;20649;-70
2023/03/13 09:03:35;;;;;;;0.53;0.43;;;13.00;99.90;;;;;;5066836;28;20632;-69
2023/03/13 09:06:03;;;;;;;0.70;0.47;;;13.00;99.90;;;;;;5067735;28;20654;-69
2023/03/13 09:08:31;;;;;;;0.47;0.40;;;13.00;99.60;;;;;;5066957;28;20713;-69
2023/03/13 09:10:59;;;;;;;1.70;0.47;;;13.20;99.90;;;;;;5067981;28;21308;-69
2023/03/13 09:13:27;;;;;;;0.50;0.30;;;13.50;99.90;;;;;;5069569;28;20610;-70
2023/03/13 09:15:56;;;;;;;0.77;0.77;;;13.20;99.60;;;;;;5068153;28;20673;-70
2023/03/13 09:18:23;;;;;;;0.50;0.50;;;13.20;99.30;;;;;;5067667;28;20629;-69
2023/03/13 09:20:50;;;;;;;0.70;0.63;;;13.20;99.30;;;;;;5067951;28;20649;-69
2023/03/13 09:23:18;;;;;;;0.70;0.70;;;13.20;99.20;;;;;;5067158;28;20618;-71
2023/03/13 09:25:45;;;;;;;0.60;0.50;;;13.30;99.40;;;;;;5068119;28;20661;-70
2023/03/13 09:28:12;;;;;;;0.73;0.60;;;13.40;99.00;;;;;;5064749;28;20716;-70
2023/03/13 09:30:38;;;;;;;0.40;0.30;;;13.40;99.30;;;;;;5066194;28;20653;-69
2023/03/13 09:33:07;;;;;;;0.53;0.30;;;13.40;99.00;;;;;;5066253;28;20618;-70
2023/03/13 09:35:33;;;;;;;0.30;0.30;;;13.50;98.50;;;;;;5065907;28;20754;-69
2023/03/13 09:38:00;;;;;;;2.10;0.50;;;13.50;98.90;;;;;;5065380;28;20646;-71
2023/03/13 09:40:34;;;;;;;1.10;0.50;;;13.50;98.80;;;;;;5066238;28;20749;-70
2023/03/13 09:43:02;;;;;;;6.93;0.80;;;13.60;98.60;;;;;;5063369;28;20617;-71
2023/03/13 09:45:32;;;;;;;0.67;0.50;;;13.60;98.70;;;;;;5065724;28;20646;-70
2023/03/13 09:48:06;;;;;;;0.60;0.33;;;13.60;98.70;;;;;;5066686;28;21105;-71
2023/03/13 09:50:37;;;;;;;0.43;0.43;;;13.70;98.50;;;;;;5066339;28;20988;-71
2023/03/13 09:53:13;;;;;;;0.40;0.40;;;13.70;98.60;;;;;;5066450;28;21177;-70
2023/03/13 09:55:43;;;;;;;0.50;0.50;;;13.80;98.30;;;;;;5065645;28;20668;-72
2023/03/13 09:58:15;;;;;;;0.87;0.87;;;14.00;98.60;;;;;;5065761;28;21220;-71
2023/03/13 10:00:46;;;;;;;1.67;1.57;;;14.20;98.20;;;;;;5066862;28;21167;-72
2023/03/13 10:03:18;;;;;;;0.50;0.37;;;14.30;97.40;;;;;;5067355;28;20777;-73
2023/03/13 10:05:49;;;;;;;0.83;0.40;;;14.50;97.60;;;;;;5068204;28;20645;-72
2023/03/13 10:08:18;;;;;;;1.20;0.80;;;14.60;97.40;;;;;;5063756;28;21377;-71
2023/03/13 10:10:49;;;;;;;0.50;0.30;;;14.70;97.40;;;;;;5068155;28;20656;-71
2023/03/13 10:13:21;;;;;;;0.60;0.37;;;14.90;96.50;;;;;;5068382;28;20721;-72
2023/03/13 10:15:53;;;;;;;1.10;0.50;;;15.10;96.80;;;;;;5065441;28;20669;-71
2023/03/13 10:18:23;;;;;;;0.93;0.53;;;15.10;95.60;;;;;;5067154;28;21381;-71
2023/03/13 10:20:53;;;;;;;1.27;0.50;;;15.20;95.60;;;;;;5070616;28;20984;-71
2023/03/13 10:23:27;;;;;;;0.93;0.80;;;15.20;95.50;;;;;;5065644;28;20617;-72
2023/03/13 10:25:53;;;;;;;1.00;0.77;;;15.30;95.00;;;;;;5067812;28;20660;-71
2023/03/13 10:28:21;;;;;;;1.70;0.87;;;15.40;94.60;;;;;;5066367;28;20632;-72
2023/03/13 10:30:51;;;;;;;0.50;0.50;;;15.40;95.30;;;;;;5070079;28;20650;-69
2023/03/13 10:33:25;;;;;;;0.63;0.60;;;15.50;94.60;;;;;;5071840;28;20644;-69
2023/03/13 10:36:08;;;;;;;2.33;0.73;;;15.70;94.40;;;;;;5072409;28;20673;-67
2023/03/13 10:38:45;;;;;;;0.60;0.53;;;16.00;94.40;;;;;;5071313;28;21045;-68
2023/03/13 10:41:27;;;;;;;0.70;0.70;;;16.20;94.40;;;;;;5072166;28;20645;-68
2023/03/13 10:43:58;;;;;;;0.50;0.50;;;16.40;94.20;;;;;;5071217;28;20621;-68
2023/03/13 10:46:26;;;;;;;2.30;1.00;;;16.60;93.30;;;;;;5071190;28;20641;-68
2023/03/13 10:48:55;;;;;;;0.50;0.40;;;16.90;93.40;;;;;;5070425;28;20618;-68
2023/03/13 10:51:30;;;;;;;1.40;0.93;;;16.80;93.10;;;;;;5066123;28;20650;-68
2023/03/13 10:53:56;;;;;;;0.63;0.60;;;16.80;92.30;;;;;;5064864;28;20629;-71
2023/03/13 10:56:27;;;;;;;0.93;0.60;;;16.60;92.50;;;;;;5072950;28;20675;-69
2023/03/13 10:58:54;;;;;;;0.63;0.60;;;16.40;92.80;;;;;;5069805;28;20621;-69
2023/03/13 11:01:23;;;;;;;0.90;0.60;;;16.50;93.00;;;;;;5065131;28;20700;-70
2023/03/13 11:03:51;;;;;;;1.47;0.87;;;16.50;92.90;;;;;;5070435;28;20638;-67
2023/03/13 11:06:32;;;;;;;0.80;0.70;;;16.50;92.50;;;;;;5071425;28;20653;-68
2023/03/13 11:09:04;;;;;;;0.47;0.47;;;16.40;92.60;;;;;;5071934;28;20632;-68
2023/03/13 11:11:42;;;;;;;0.50;0.50;;;16.50;92.80;;;;;;5071182;28;20752;-68
2023/03/13 11:14:13;;;;;;;0.60;0.60;;;16.60;92.60;;;;;;5072272;28;20621;-68
2023/03/13 11:16:48;;;;;;;0.70;0.63;;;16.60;91.90;;;;;;5071540;28;20678;-67
2023/03/13 11:19:42;;;;;;;0.73;0.73;;;16.50;92.30;;;;;;5071801;28;20632;-68
2023/03/13 11:22:33;;;;;;;0.53;0.53;;;16.60;91.90;;;;;;5068140;28;21045;-68
2023/03/13 11:25:13;;;;;;;0.47;0.40;;;16.60;91.80;;;;;;5072244;28;21157;-68
2023/03/13 11:27:45;;;;;;;0.97;0.70;;;16.50;92.40;;;;;;5066093;28;20625;-69
2023/03/13 11:30:46;;;;;;;0.50;0.50;;;16.60;92.60;;;;;;5063769;28;20639;-72
2023/03/13 11:33:24;;;;;;;0.40;0.40;;;16.70;92.60;;;;;;5068439;28;20629;-67
2023/03/13 11:35:58;;;;;;;1.00;0.80;;;16.80;92.00;;;;;;5070896;28;20775;-67
2023/03/13 11:38:32;;;;;;;0.60;0.60;;;16.80;91.20;;;;;;5077601;28;21106;-67
2023/03/13 11:41:07;;;;;;;0.83;0.83;;;16.70;91.40;;;;;;5067159;28;20642;-68
2023/03/13 11:43:59;;;;;;;0.83;0.83;;;16.70;91.50;;;;;;5067077;28;20635;-69
2023/03/13 11:46:38;;;;;;;0.43;0.43;;;16.70;92.00;;;;;;5066517;28;20732;-67
2023/03/13 11:49:28;;;;;;;0.50;0.40;;;16.80;92.30;;;;;;5071181;28;20632;-67
2023/03/13 11:52:08;;;;;;;0.70;0.70;;;17.00;91.70;;;;;;5066832;28;20645;-67
2023/03/13 11:55:03;;;;;;;1.93;0.60;;;17.10;91.20;;;;;;5068726;28;20617;-67
2023/03/13 11:57:34;;;;;;;0.63;0.63;;;17.10;91.70;;;;;;5068749;28;20630;-68
2023/03/13 12:00:18;;;;;;;0.63;0.63;;;17.10;92.20;;;;;;5070921;28;20729;-67
2023/03/13 12:02:51;;;;;;;0.80;0.80;;;17.20;91.70;;;;;;5070521;28;21039;-67
2023/03/13 12:05:20;;;;;;;0.77;0.50;;;17.30;91.00;;;;;;5071268;28;20720;-67
2023/03/13 12:07:52;;;;;;;0.53;0.40;;;17.50;91.00;;;;;;5070695;28;20732;-67
2023/03/13 12:10:26;;;;;;;0.60;0.43;;;17.50;90.30;;;;;;5064990;28;20730;-67
2023/03/13 12:13:01;;;;;;;0.57;0.57;;;17.50;89.40;;;;;;5066733;28;20728;-68
2023/03/13 12:15:31;;;;;;;0.67;0.47;;;17.60;90.40;;;;;;5070147;28;20661;-67
2023/03/13 12:18:02;;;;;;;0.50;0.40;;;17.70;90.30;;;;;;5069812;28;20981;-68
2023/03/13 12:20:39;;;;;;;0.50;0.50;;;17.80;90.00;;;;;;5068776;28;20667;-71
2023/03/13 12:23:17;;;;;;;0.90;0.50;;;17.80;89.10;;;;;;5071275;28;20626;-67
2023/03/13 12:25:50;;;;;;;0.80;0.70;;;18.00;88.30;;;;;;5070199;28;20644;-67
2023/03/13 12:28:34;;;;;;;0.50;0.40;;;18.10;88.40;;;;;;5070657;28;20629;-67
2023/03/13 12:31:08;;;;;;;0.67;0.60;;;18.10;89.00;;;;;;5069312;28;20647;-67
2023/03/13 12:33:41;;;;;;;1.23;0.50;;;18.20;88.10;;;;;;5070506;28;20630;-67
2023/03/13 12:36:13;;;;;;;0.57;0.57;;;18.30;86.70;;;;;;5070978;28;20676;-67
2023/03/13 12:38:44;;;;;;;1.20;0.90;;;18.40;85.80;;;;;;5070980;28;20728;-67
2023/03/13 12:41:32;;;;;;;0.77;0.60;;;18.40;85.70;;;;;;5070194;28;21242;-67
2023/03/13 12:43:59;;;;;;;0.40;0.40;;;18.30;84.90;;;;;;5071336;28;20721;-67
2023/03/13 12:46:37;;;;;;;1.47;0.57;;;18.40;85.30;;;;;;5070336;28;20752;-68
2023/03/13 12:49:58;;;;;;;0.50;0.47;;;18.50;86.30;;;;;;5070446;28;20733;-67
2023/03/13 12:52:40;;;;;;;0.93;0.53;;;18.60;82.90;;;;;;4988089;28;20679;-70
2023/03/13 12:55:32;;;;;;;0.43;0.43;;;18.70;83.00;;;;;;5008705;28;20631;-68
2023/03/13 12:58:13;;;;;;;0.47;0.47;;;18.80;83.00;;;;;;5040326;28;20614;-68
2023/03/13 13:00:43;;;;;;;1.37;0.70;;;18.90;84.20;;;;;;5069452;28;20652;-68
2023/03/13 13:03:22;;;;;;;0.90;0.80;;;19.10;82.10;;;;;;5070264;28;20633;-68
2023/03/13 13:06:05;;;;;;;0.50;0.50;;;19.10;82.00;;;;;;5069882;28;20661;-68
2023/03/13 13:08:36;;;;;;;0.70;0.70;;;19.20;81.90;;;;;;5070004;28;20629;-68
2023/03/13 13:11:53;;;;;;;0.60;0.40;;;19.20;80.20;;;;;;5070187;28;21066;-68